Terminal Aerodrome Forecast
Issued by NWS

Current Version | Previous Version | Graphics & Text | Print | Product List | Glossary On
Versions: 1 2 3 4 5 6 7 8 9 10 11 12 13 14 15 16 17 18 19 20 21 22
556
FTUS41 KPBZ 260520
TAFMGW
TAF
KMGW 260520Z 2606/2706 00000KT 6SM BR SKC
     FM260800 00000KT 3SM BR SKC
      TEMPO 2609/2612 1SM BR
     FM261300 00000KT P6SM SKC=

USA.gov is the U.S. government's official web portal to all federal, state and local government web resources and services.